sensor_id;sensor_type;location;lat;lon;timestamp;P1;durP1;ratioP1;P2;durP2;ratioP2
735;SDS011;352;48.626;9.238;2022-09-09T00:00:55;2.40;;;1.60;;
735;SDS011;352;48.626;9.238;2022-09-09T00:03:31;5.90;;;1.83;;
735;SDS011;352;48.626;9.238;2022-09-09T00:06:06;1.60;;;1.50;;
735;SDS011;352;48.626;9.238;2022-09-09T00:08:39;2.00;;;1.70;;
735;SDS011;352;48.626;9.238;2022-09-09T00:11:12;2.80;;;1.53;;
735;SDS011;352;48.626;9.238;2022-09-09T00:13:46;5.10;;;1.40;;
735;SDS011;352;48.626;9.238;2022-09-09T00:16:17;3.00;;;1.37;;
735;SDS011;352;48.626;9.238;2022-09-09T00:18:51;3.40;;;1.70;;
735;SDS011;352;48.626;9.238;2022-09-09T00:21:23;4.30;;;2.13;;
735;SDS011;352;48.626;9.238;2022-09-09T00:23:57;3.30;;;1.80;;
735;SDS011;352;48.626;9.238;2022-09-09T00:26:26;2.80;;;1.90;;
735;SDS011;352;48.626;9.238;2022-09-09T00:29:00;4.87;;;1.80;;
735;SDS011;352;48.626;9.238;2022-09-09T00:31:35;1.83;;;1.73;;
735;SDS011;352;48.626;9.238;2022-09-09T00:34:05;3.60;;;1.70;;
735;SDS011;352;48.626;9.238;2022-09-09T00:36:39;1.60;;;1.37;;
735;SDS011;352;48.626;9.238;2022-09-09T00:39:09;2.80;;;1.50;;
735;SDS011;352;48.626;9.238;2022-09-09T00:41:47;1.83;;;1.43;;
735;SDS011;352;48.626;9.238;2022-09-09T00:44:25;1.50;;;1.40;;
735;SDS011;352;48.626;9.238;2022-09-09T00:47:13;3.03;;;1.67;;
735;SDS011;352;48.626;9.238;2022-09-09T00:49:56;3.10;;;1.70;;
735;SDS011;352;48.626;9.238;2022-09-09T00:52:30;2.50;;;1.60;;
735;SDS011;352;48.626;9.238;2022-09-09T00:55:05;2.20;;;1.50;;
735;SDS011;352;48.626;9.238;2022-09-09T00:57:37;3.20;;;1.60;;
735;SDS011;352;48.626;9.238;2022-09-09T01:00:21;1.70;;;1.20;;
735;SDS011;352;48.626;9.238;2022-09-09T01:02:56;2.50;;;1.40;;
735;SDS011;352;48.626;9.238;2022-09-09T01:05:39;4.20;;;1.70;;
735;SDS011;352;48.626;9.238;2022-09-09T01:08:12;3.27;;;1.40;;
735;SDS011;352;48.626;9.238;2022-09-09T01:10:53;1.93;;;1.80;;
735;SDS011;352;48.626;9.238;2022-09-09T01:13:22;1.30;;;1.20;;
735;SDS011;352;48.626;9.238;2022-09-09T01:15:51;3.03;;;1.43;;
735;SDS011;352;48.626;9.238;2022-09-09T01:18:19;4.70;;;1.40;;
735;SDS011;352;48.626;9.238;2022-09-09T01:20:54;2.00;;;1.70;;
735;SDS011;352;48.626;9.238;2022-09-09T01:23:36;4.30;;;1.60;;
735;SDS011;352;48.626;9.238;2022-09-09T01:26:14;4.83;;;2.03;;
735;SDS011;352;48.626;9.238;2022-09-09T01:28:52;6.20;;;1.63;;
735;SDS011;352;48.626;9.238;2022-09-09T01:31:20;2.60;;;1.43;;
735;SDS011;352;48.626;9.238;2022-09-09T01:33:49;2.33;;;1.90;;
735;SDS011;352;48.626;9.238;2022-09-09T01:36:21;2.67;;;1.93;;
735;SDS011;352;48.626;9.238;2022-09-09T01:38:54;2.50;;;1.53;;
735;SDS011;352;48.626;9.238;2022-09-09T01:41:22;3.00;;;1.30;;
735;SDS011;352;48.626;9.238;2022-09-09T01:43:49;2.50;;;1.53;;
735;SDS011;352;48.626;9.238;2022-09-09T01:46:16;4.70;;;1.70;;
735;SDS011;352;48.626;9.238;2022-09-09T01:48:44;1.97;;;1.50;;
735;SDS011;352;48.626;9.238;2022-09-09T01:51:11;2.40;;;1.43;;
735;SDS011;352;48.626;9.238;2022-09-09T01:53:38;1.60;;;1.50;;
735;SDS011;352;48.626;9.238;2022-09-09T01:56:09;3.07;;;1.50;;
735;SDS011;352;48.626;9.238;2022-09-09T01:58:47;1.47;;;1.37;;
735;SDS011;352;48.626;9.238;2022-09-09T02:01:27;2.40;;;1.53;;
735;SDS011;352;48.626;9.238;2022-09-09T02:04:08;2.53;;;2.33;;
735;SDS011;352;48.626;9.238;2022-09-09T02:06:43;1.47;;;1.33;;
735;SDS011;352;48.626;9.238;2022-09-09T02:09:14;5.83;;;2.03;;
735;SDS011;352;48.626;9.238;2022-09-09T02:11:45;9.57;;;1.50;;
735;SDS011;352;48.626;9.238;2022-09-09T02:14:17;2.50;;;1.57;;
735;SDS011;352;48.626;9.238;2022-09-09T02:16:52;2.90;;;1.60;;
735;SDS011;352;48.626;9.238;2022-09-09T02:19:24;2.10;;;1.50;;
735;SDS011;352;48.626;9.238;2022-09-09T02:21:54;2.90;;;1.50;;
735;SDS011;352;48.626;9.238;2022-09-09T02:24:23;6.07;;;2.17;;
735;SDS011;352;48.626;9.238;2022-09-09T02:26:52;2.50;;;1.73;;
735;SDS011;352;48.626;9.238;2022-09-09T02:29:24;1.60;;;1.30;;
735;SDS011;352;48.626;9.238;2022-09-09T02:31:54;5.57;;;1.80;;
735;SDS011;352;48.626;9.238;2022-09-09T02:34:23;5.67;;;1.73;;
735;SDS011;352;48.626;9.238;2022-09-09T02:36:53;3.17;;;1.80;;
735;SDS011;352;48.626;9.238;2022-09-09T02:39:21;2.50;;;1.60;;
735;SDS011;352;48.626;9.238;2022-09-09T02:41:48;4.80;;;1.70;;
735;SDS011;352;48.626;9.238;2022-09-09T02:44:16;4.40;;;2.00;;
735;SDS011;352;48.626;9.238;2022-09-09T02:46:49;2.67;;;1.90;;
735;SDS011;352;48.626;9.238;2022-09-09T02:49:32;2.00;;;1.90;;
735;SDS011;352;48.626;9.238;2022-09-09T02:52:07;1.90;;;1.60;;
735;SDS011;352;48.626;9.238;2022-09-09T02:54:40;2.80;;;1.40;;
735;SDS011;352;48.626;9.238;2022-09-09T02:57:10;3.07;;;2.77;;
735;SDS011;352;48.626;9.238;2022-09-09T02:59:38;7.33;;;2.70;;
735;SDS011;352;48.626;9.238;2022-09-09T03:02:07;3.47;;;2.00;;
735;SDS011;352;48.626;9.238;2022-09-09T03:04:35;4.33;;;1.90;;
735;SDS011;352;48.626;9.238;2022-09-09T03:07:01;2.43;;;1.77;;
735;SDS011;352;48.626;9.238;2022-09-09T03:09:29;5.90;;;1.83;;
735;SDS011;352;48.626;9.238;2022-09-09T03:11:57;3.23;;;2.00;;
735;SDS011;352;48.626;9.238;2022-09-09T03:14:24;3.77;;;1.80;;
735;SDS011;352;48.626;9.238;2022-09-09T03:16:51;2.07;;;1.80;;
735;SDS011;352;48.626;9.238;2022-09-09T03:19:19;2.30;;;1.60;;
735;SDS011;352;48.626;9.238;2022-09-09T03:21:46;3.20;;;1.63;;
735;SDS011;352;48.626;9.238;2022-09-09T03:24:14;3.73;;;1.90;;
735;SDS011;352;48.626;9.238;2022-09-09T03:26:41;2.60;;;2.00;;
735;SDS011;352;48.626;9.238;2022-09-09T03:29:09;4.03;;;2.10;;
735;SDS011;352;48.626;9.238;2022-09-09T03:31:37;2.87;;;2.37;;
735;SDS011;352;48.626;9.238;2022-09-09T03:34:04;4.23;;;2.30;;
735;SDS011;352;48.626;9.238;2022-09-09T03:36:32;2.73;;;1.80;;
735;SDS011;352;48.626;9.238;2022-09-09T03:38:59;2.43;;;2.00;;
735;SDS011;352;48.626;9.238;2022-09-09T03:41:28;4.10;;;1.87;;
735;SDS011;352;48.626;9.238;2022-09-09T03:43:54;4.00;;;2.00;;
735;SDS011;352;48.626;9.238;2022-09-09T03:46:22;1.70;;;1.60;;
735;SDS011;352;48.626;9.238;2022-09-09T03:48:50;4.37;;;1.87;;
735;SDS011;352;48.626;9.238;2022-09-09T03:51:18;4.27;;;1.70;;
735;SDS011;352;48.626;9.238;2022-09-09T03:53:46;1.73;;;1.63;;
735;SDS011;352;48.626;9.238;2022-09-09T03:56:13;3.23;;;1.40;;
735;SDS011;352;48.626;9.238;2022-09-09T03:58:40;3.60;;;2.07;;
735;SDS011;352;48.626;9.238;2022-09-09T04:01:07;3.43;;;1.77;;
735;SDS011;352;48.626;9.238;2022-09-09T04:03:38;2.47;;;2.27;;
735;SDS011;352;48.626;9.238;2022-09-09T04:06:06;6.20;;;1.93;;
735;SDS011;352;48.626;9.238;2022-09-09T04:08:34;3.33;;;1.50;;
735;SDS011;352;48.626;9.238;2022-09-09T04:11:04;2.93;;;1.60;;
735;SDS011;352;48.626;9.238;2022-09-09T04:13:32;2.80;;;2.10;;
735;SDS011;352;48.626;9.238;2022-09-09T04:16:00;3.40;;;2.20;;
735;SDS011;352;48.626;9.238;2022-09-09T04:18:28;4.20;;;2.10;;
735;SDS011;352;48.626;9.238;2022-09-09T04:20:55;3.00;;;2.43;;
735;SDS011;352;48.626;9.238;2022-09-09T04:23:23;4.00;;;2.40;;
735;SDS011;352;48.626;9.238;2022-09-09T04:25:51;2.27;;;1.67;;
735;SDS011;352;48.626;9.238;2022-09-09T04:28:21;3.07;;;2.13;;
735;SDS011;352;48.626;9.238;2022-09-09T04:30:49;3.03;;;2.13;;
735;SDS011;352;48.626;9.238;2022-09-09T04:33:16;2.23;;;1.60;;
735;SDS011;352;48.626;9.238;2022-09-09T04:35:43;4.77;;;1.93;;
735;SDS011;352;48.626;9.238;2022-09-09T04:38:12;2.50;;;2.17;;
735;SDS011;352;48.626;9.238;2022-09-09T04:40:39;4.50;;;2.00;;
735;SDS011;352;48.626;9.238;2022-09-09T04:43:08;2.53;;;1.83;;
735;SDS011;352;48.626;9.238;2022-09-09T04:45:37;1.70;;;1.60;;
735;SDS011;352;48.626;9.238;2022-09-09T04:48:05;3.07;;;2.00;;
735;SDS011;352;48.626;9.238;2022-09-09T04:50:32;3.10;;;2.30;;
735;SDS011;352;48.626;9.238;2022-09-09T04:52:59;2.47;;;2.20;;
735;SDS011;352;48.626;9.238;2022-09-09T04:55:27;2.10;;;1.70;;
735;SDS011;352;48.626;9.238;2022-09-09T04:57:53;2.83;;;2.00;;
735;SDS011;352;48.626;9.238;2022-09-09T05:00:21;2.03;;;1.80;;
735;SDS011;352;48.626;9.238;2022-09-09T05:02:49;2.67;;;2.03;;
735;SDS011;352;48.626;9.238;2022-09-09T05:05:16;2.90;;;2.00;;
735;SDS011;352;48.626;9.238;2022-09-09T05:07:43;3.57;;;2.10;;
735;SDS011;352;48.626;9.238;2022-09-09T05:10:10;4.27;;;2.30;;
735;SDS011;352;48.626;9.238;2022-09-09T05:12:38;5.63;;;2.40;;
735;SDS011;352;48.626;9.238;2022-09-09T05:15:05;2.13;;;1.93;;
735;SDS011;352;48.626;9.238;2022-09-09T05:17:32;2.47;;;2.07;;
735;SDS011;352;48.626;9.238;2022-09-09T05:20:01;2.90;;;2.00;;
735;SDS011;352;48.626;9.238;2022-09-09T05:22:29;3.30;;;2.10;;
735;SDS011;352;48.626;9.238;2022-09-09T05:24:55;2.60;;;2.00;;
735;SDS011;352;48.626;9.238;2022-09-09T05:27:23;2.30;;;1.90;;
735;SDS011;352;48.626;9.238;2022-09-09T05:29:50;3.50;;;2.20;;
735;SDS011;352;48.626;9.238;2022-09-09T05:32:17;3.87;;;2.03;;
735;SDS011;352;48.626;9.238;2022-09-09T05:34:43;3.00;;;1.53;;
735;SDS011;352;48.626;9.238;2022-09-09T05:37:13;4.20;;;1.67;;
735;SDS011;352;48.626;9.238;2022-09-09T05:39:39;2.20;;;1.80;;
735;SDS011;352;48.626;9.238;2022-09-09T05:42:06;3.57;;;2.07;;
735;SDS011;352;48.626;9.238;2022-09-09T05:44:33;3.60;;;1.70;;
735;SDS011;352;48.626;9.238;2022-09-09T05:46:59;3.40;;;1.90;;
735;SDS011;352;48.626;9.238;2022-09-09T05:49:26;3.80;;;1.80;;
735;SDS011;352;48.626;9.238;2022-09-09T05:51:53;2.43;;;1.80;;
735;SDS011;352;48.626;9.238;2022-09-09T05:54:21;4.70;;;1.93;;
735;SDS011;352;48.626;9.238;2022-09-09T05:56:48;1.53;;;1.40;;
735;SDS011;352;48.626;9.238;2022-09-09T05:59:15;2.63;;;1.67;;
735;SDS011;352;48.626;9.238;2022-09-09T06:01:43;2.67;;;1.47;;
735;SDS011;352;48.626;9.238;2022-09-09T06:04:10;1.60;;;1.50;;
735;SDS011;352;48.626;9.238;2022-09-09T06:06:37;3.40;;;1.60;;
735;SDS011;352;48.626;9.238;2022-09-09T06:09:05;1.90;;;1.70;;
735;SDS011;352;48.626;9.238;2022-09-09T06:11:36;2.00;;;1.57;;
735;SDS011;352;48.626;9.238;2022-09-09T06:14:04;1.90;;;1.80;;
735;SDS011;352;48.626;9.238;2022-09-09T06:16:31;2.10;;;1.63;;
735;SDS011;352;48.626;9.238;2022-09-09T06:18:59;3.13;;;1.80;;
735;SDS011;352;48.626;9.238;2022-09-09T06:21:26;1.63;;;1.53;;
735;SDS011;352;48.626;9.238;2022-09-09T06:23:54;3.47;;;1.93;;
735;SDS011;352;48.626;9.238;2022-09-09T06:26:21;1.40;;;1.30;;
735;SDS011;352;48.626;9.238;2022-09-09T06:28:52;3.53;;;1.70;;
735;SDS011;352;48.626;9.238;2022-09-09T06:31:20;3.47;;;1.33;;
735;SDS011;352;48.626;9.238;2022-09-09T06:33:48;4.03;;;1.63;;
735;SDS011;352;48.626;9.238;2022-09-09T06:36:16;2.70;;;1.87;;
735;SDS011;352;48.626;9.238;2022-09-09T06:38:45;3.27;;;1.87;;
735;SDS011;352;48.626;9.238;2022-09-09T06:41:13;1.50;;;1.40;;
735;SDS011;352;48.626;9.238;2022-09-09T06:43:40;2.13;;;1.90;;
735;SDS011;352;48.626;9.238;2022-09-09T06:46:10;2.30;;;2.10;;
735;SDS011;352;48.626;9.238;2022-09-09T06:48:38;6.70;;;2.07;;
735;SDS011;352;48.626;9.238;2022-09-09T06:51:07;3.70;;;1.77;;
735;SDS011;352;48.626;9.238;2022-09-09T06:53:36;3.57;;;1.67;;
735;SDS011;352;48.626;9.238;2022-09-09T06:56:16;2.10;;;1.90;;
735;SDS011;352;48.626;9.238;2022-09-09T06:58:45;5.67;;;2.47;;
735;SDS011;352;48.626;9.238;2022-09-09T07:01:15;5.20;;;2.00;;
735;SDS011;352;48.626;9.238;2022-09-09T07:03:45;2.23;;;1.80;;
735;SDS011;352;48.626;9.238;2022-09-09T07:06:13;2.33;;;2.13;;
735;SDS011;352;48.626;9.238;2022-09-09T07:08:42;3.40;;;1.80;;
735;SDS011;352;48.626;9.238;2022-09-09T07:11:09;2.83;;;1.30;;
735;SDS011;352;48.626;9.238;2022-09-09T07:13:36;2.13;;;1.40;;
735;SDS011;352;48.626;9.238;2022-09-09T07:16:03;2.40;;;1.50;;
735;SDS011;352;48.626;9.238;2022-09-09T07:18:32;1.37;;;1.27;;
735;SDS011;352;48.626;9.238;2022-09-09T07:20:59;3.73;;;1.60;;
735;SDS011;352;48.626;9.238;2022-09-09T07:23:27;2.33;;;1.50;;
735;SDS011;352;48.626;9.238;2022-09-09T07:25:54;4.80;;;1.43;;
735;SDS011;352;48.626;9.238;2022-09-09T07:28:21;3.23;;;1.53;;
735;SDS011;352;48.626;9.238;2022-09-09T07:30:57;2.50;;;1.70;;
735;SDS011;352;48.626;9.238;2022-09-09T07:33:26;1.73;;;1.63;;
735;SDS011;352;48.626;9.238;2022-09-09T07:36:01;1.93;;;1.30;;
735;SDS011;352;48.626;9.238;2022-09-09T07:38:28;2.30;;;1.40;;
735;SDS011;352;48.626;9.238;2022-09-09T07:41:01;7.93;;;4.20;;
735;SDS011;352;48.626;9.238;2022-09-09T07:43:30;4.33;;;2.03;;
735;SDS011;352;48.626;9.238;2022-09-09T07:45:57;2.00;;;1.50;;
735;SDS011;352;48.626;9.238;2022-09-09T07:48:24;2.90;;;1.70;;
735;SDS011;352;48.626;9.238;2022-09-09T07:50:50;1.67;;;1.47;;
735;SDS011;352;48.626;9.238;2022-09-09T07:53:25;2.50;;;1.50;;
735;SDS011;352;48.626;9.238;2022-09-09T07:56:01;1.90;;;1.20;;
735;SDS011;352;48.626;9.238;2022-09-09T07:58:29;2.50;;;1.90;;
735;SDS011;352;48.626;9.238;2022-09-09T08:00:55;1.60;;;1.50;;
735;SDS011;352;48.626;9.238;2022-09-09T08:03:22;1.40;;;1.30;;
735;SDS011;352;48.626;9.238;2022-09-09T08:05:49;2.70;;;1.67;;
735;SDS011;352;48.626;9.238;2022-09-09T08:08:16;3.70;;;1.50;;
735;SDS011;352;48.626;9.238;2022-09-09T08:10:44;2.20;;;1.60;;
735;SDS011;352;48.626;9.238;2022-09-09T08:13:11;2.97;;;1.60;;
735;SDS011;352;48.626;9.238;2022-09-09T08:15:39;2.50;;;1.50;;
735;SDS011;352;48.626;9.238;2022-09-09T08:18:06;2.03;;;1.70;;
735;SDS011;352;48.626;9.238;2022-09-09T08:20:35;1.60;;;1.20;;
735;SDS011;352;48.626;9.238;2022-09-09T08:23:03;3.13;;;1.60;;
735;SDS011;352;48.626;9.238;2022-09-09T08:25:32;5.00;;;1.60;;
735;SDS011;352;48.626;9.238;2022-09-09T08:28:00;1.73;;;1.47;;
735;SDS011;352;48.626;9.238;2022-09-09T08:30:28;2.30;;;1.40;;
735;SDS011;352;48.626;9.238;2022-09-09T08:32:55;1.70;;;1.53;;
735;SDS011;352;48.626;9.238;2022-09-09T08:35:22;1.80;;;1.30;;
735;SDS011;352;48.626;9.238;2022-09-09T08:37:53;3.47;;;1.30;;
735;SDS011;352;48.626;9.238;2022-09-09T08:40:21;2.50;;;1.63;;
735;SDS011;352;48.626;9.238;2022-09-09T08:42:52;2.30;;;1.83;;
735;SDS011;352;48.626;9.238;2022-09-09T08:45:28;1.70;;;1.60;;
735;SDS011;352;48.626;9.238;2022-09-09T08:48:08;3.50;;;1.50;;
735;SDS011;352;48.626;9.238;2022-09-09T08:50:44;3.17;;;1.67;;
735;SDS011;352;48.626;9.238;2022-09-09T08:53:16;1.93;;;1.50;;
735;SDS011;352;48.626;9.238;2022-09-09T08:55:47;2.57;;;1.30;;
735;SDS011;352;48.626;9.238;2022-09-09T08:58:16;2.07;;;1.57;;
735;SDS011;352;48.626;9.238;2022-09-09T09:01:00;3.07;;;1.60;;
735;SDS011;352;48.626;9.238;2022-09-09T09:03:43;2.53;;;1.50;;
735;SDS011;352;48.626;9.238;2022-09-09T09:06:22;5.30;;;1.97;;
735;SDS011;352;48.626;9.238;2022-09-09T09:09:02;3.63;;;1.70;;
735;SDS011;352;48.626;9.238;2022-09-09T09:11:35;2.10;;;1.60;;
735;SDS011;352;48.626;9.238;2022-09-09T09:14:04;2.87;;;1.57;;
735;SDS011;352;48.626;9.238;2022-09-09T09:16:38;4.83;;;1.30;;
735;SDS011;352;48.626;9.238;2022-09-09T09:19:13;2.37;;;1.70;;
735;SDS011;352;48.626;9.238;2022-09-09T09:21:42;1.97;;;1.60;;
735;SDS011;352;48.626;9.238;2022-09-09T09:24:13;4.07;;;1.47;;
735;SDS011;352;48.626;9.238;2022-09-09T09:26:45;3.07;;;1.60;;
735;SDS011;352;48.626;9.238;2022-09-09T09:29:12;1.37;;;1.13;;
735;SDS011;352;48.626;9.238;2022-09-09T09:31:43;4.17;;;1.70;;
735;SDS011;352;48.626;9.238;2022-09-09T09:34:13;17.80;;;8.40;;
735;SDS011;352;48.626;9.238;2022-09-09T09:36:40;32.03;;;16.27;;
735;SDS011;352;48.626;9.238;2022-09-09T09:39:22;10.80;;;5.50;;
735;SDS011;352;48.626;9.238;2022-09-09T09:41:51;5.33;;;4.20;;
735;SDS011;352;48.626;9.238;2022-09-09T09:44:21;3.53;;;2.00;;
735;SDS011;352;48.626;9.238;2022-09-09T09:46:52;2.40;;;1.50;;
735;SDS011;352;48.626;9.238;2022-09-09T09:49:19;2.67;;;1.37;;
735;SDS011;352;48.626;9.238;2022-09-09T09:51:45;2.60;;;1.47;;
735;SDS011;352;48.626;9.238;2022-09-09T09:54:14;1.43;;;1.20;;
735;SDS011;352;48.626;9.238;2022-09-09T09:56:48;3.10;;;1.43;;
735;SDS011;352;48.626;9.238;2022-09-09T09:59:22;2.83;;;1.40;;
735;SDS011;352;48.626;9.238;2022-09-09T10:02:10;2.97;;;1.37;;
735;SDS011;352;48.626;9.238;2022-09-09T10:04:44;3.10;;;1.57;;
735;SDS011;352;48.626;9.238;2022-09-09T10:07:11;3.50;;;1.37;;
735;SDS011;352;48.626;9.238;2022-09-09T10:09:42;3.20;;;1.30;;
735;SDS011;352;48.626;9.238;2022-09-09T10:12:13;1.80;;;1.20;;
735;SDS011;352;48.626;9.238;2022-09-09T10:14:53;2.57;;;1.30;;
735;SDS011;352;48.626;9.238;2022-09-09T10:17:31;2.67;;;1.33;;
735;SDS011;352;48.626;9.238;2022-09-09T10:20:11;2.50;;;1.10;;
735;SDS011;352;48.626;9.238;2022-09-09T10:22:45;1.43;;;1.10;;
735;SDS011;352;48.626;9.238;2022-09-09T10:25:19;3.23;;;1.40;;
735;SDS011;352;48.626;9.238;2022-09-09T10:28:01;4.83;;;1.50;;
735;SDS011;352;48.626;9.238;2022-09-09T10:30:45;2.07;;;1.10;;
735;SDS011;352;48.626;9.238;2022-09-09T10:33:22;3.50;;;1.27;;
735;SDS011;352;48.626;9.238;2022-09-09T10:35:56;2.70;;;1.30;;
735;SDS011;352;48.626;9.238;2022-09-09T10:38:33;2.47;;;1.30;;
735;SDS011;352;48.626;9.238;2022-09-09T10:41:13;1.33;;;1.10;;
735;SDS011;352;48.626;9.238;2022-09-09T10:43:56;1.83;;;1.10;;
735;SDS011;352;48.626;9.238;2022-09-09T10:46:34;2.37;;;1.00;;
735;SDS011;352;48.626;9.238;2022-09-09T10:49:13;2.70;;;1.43;;
735;SDS011;352;48.626;9.238;2022-09-09T10:51:51;2.13;;;1.00;;
735;SDS011;352;48.626;9.238;2022-09-09T10:54:30;5.70;;;1.50;;
735;SDS011;352;48.626;9.238;2022-09-09T10:57:08;2.77;;;1.10;;
735;SDS011;352;48.626;9.238;2022-09-09T10:59:40;1.50;;;1.20;;
735;SDS011;352;48.626;9.238;2022-09-09T11:02:12;2.40;;;1.10;;
735;SDS011;352;48.626;9.238;2022-09-09T11:04:48;1.20;;;1.10;;
735;SDS011;352;48.626;9.238;2022-09-09T11:07:22;1.10;;;1.00;;
735;SDS011;352;48.626;9.238;2022-09-09T11:09:55;2.27;;;1.60;;
735;SDS011;352;48.626;9.238;2022-09-09T11:12:27;2.80;;;1.20;;
735;SDS011;352;48.626;9.238;2022-09-09T11:14:57;3.83;;;1.20;;
735;SDS011;352;48.626;9.238;2022-09-09T11:17:48;1.50;;;1.00;;
735;SDS011;352;48.626;9.238;2022-09-09T11:20:19;2.63;;;1.40;;
735;SDS011;352;48.626;9.238;2022-09-09T11:22:47;1.33;;;1.00;;
735;SDS011;352;48.626;9.238;2022-09-09T11:25:18;3.13;;;1.20;;
735;SDS011;352;48.626;9.238;2022-09-09T11:27:53;3.30;;;1.20;;
735;SDS011;352;48.626;9.238;2022-09-09T11:30:33;5.23;;;1.87;;
735;SDS011;352;48.626;9.238;2022-09-09T11:36:28;1.93;;;1.23;;
735;SDS011;352;48.626;9.238;2022-09-09T11:39:07;3.27;;;1.20;;
735;SDS011;352;48.626;9.238;2022-09-09T11:41:50;1.50;;;1.20;;
735;SDS011;352;48.626;9.238;2022-09-09T11:44:17;5.80;;;1.10;;
735;SDS011;352;48.626;9.238;2022-09-09T11:46:49;2.97;;;1.23;;
735;SDS011;352;48.626;9.238;2022-09-09T11:49:25;4.37;;;1.20;;
735;SDS011;352;48.626;9.238;2022-09-09T11:51:55;2.73;;;1.17;;
735;SDS011;352;48.626;9.238;2022-09-09T11:54:26;1.00;;;0.70;;
735;SDS011;352;48.626;9.238;2022-09-09T11:56:56;1.30;;;0.97;;
735;SDS011;352;48.626;9.238;2022-09-09T11:59:24;1.00;;;0.90;;
735;SDS011;352;48.626;9.238;2022-09-09T12:01:54;1.63;;;0.90;;
735;SDS011;352;48.626;9.238;2022-09-09T12:04:33;1.70;;;0.90;;
735;SDS011;352;48.626;9.238;2022-09-09T12:07:05;1.73;;;0.90;;
735;SDS011;352;48.626;9.238;2022-09-09T12:09:56;1.73;;;0.70;;
735;SDS011;352;48.626;9.238;2022-09-09T12:12:27;1.07;;;0.97;;
735;SDS011;352;48.626;9.238;2022-09-09T12:14:58;1.77;;;0.90;;
735;SDS011;352;48.626;9.238;2022-09-09T12:17:43;1.20;;;1.00;;
735;SDS011;352;48.626;9.238;2022-09-09T12:20:12;1.40;;;1.10;;
735;SDS011;352;48.626;9.238;2022-09-09T12:22:45;0.80;;;0.80;;
735;SDS011;352;48.626;9.238;2022-09-09T12:25:32;3.23;;;1.00;;
735;SDS011;352;48.626;9.238;2022-09-09T12:28:09;0.70;;;0.70;;
735;SDS011;352;48.626;9.238;2022-09-09T12:30:43;1.33;;;0.90;;
735;SDS011;352;48.626;9.238;2022-09-09T12:33:16;1.13;;;0.60;;
735;SDS011;352;48.626;9.238;2022-09-09T12:35:45;1.23;;;0.70;;
735;SDS011;352;48.626;9.238;2022-09-09T12:38:20;1.30;;;0.73;;
735;SDS011;352;48.626;9.238;2022-09-09T12:40:55;1.27;;;1.00;;
735;SDS011;352;48.626;9.238;2022-09-09T12:43:23;1.40;;;0.87;;
735;SDS011;352;48.626;9.238;2022-09-09T12:45:52;1.60;;;0.90;;
735;SDS011;352;48.626;9.238;2022-09-09T12:48:25;2.53;;;1.07;;
735;SDS011;352;48.626;9.238;2022-09-09T12:50:56;1.50;;;1.10;;
735;SDS011;352;48.626;9.238;2022-09-09T12:53:26;2.70;;;1.00;;
735;SDS011;352;48.626;9.238;2022-09-09T12:55:56;0.97;;;0.87;;
735;SDS011;352;48.626;9.238;2022-09-09T12:58:25;2.60;;;1.20;;
735;SDS011;352;48.626;9.238;2022-09-09T13:00:58;2.30;;;1.00;;
735;SDS011;352;48.626;9.238;2022-09-09T13:03:26;1.90;;;1.20;;
735;SDS011;352;48.626;9.238;2022-09-09T13:05:54;1.53;;;1.00;;
735;SDS011;352;48.626;9.238;2022-09-09T13:08:27;2.77;;;1.00;;
735;SDS011;352;48.626;9.238;2022-09-09T13:10:54;2.87;;;1.10;;
735;SDS011;352;48.626;9.238;2022-09-09T13:13:25;2.63;;;1.00;;
735;SDS011;352;48.626;9.238;2022-09-09T13:15:55;3.40;;;1.00;;
735;SDS011;352;48.626;9.238;2022-09-09T13:18:24;2.37;;;1.03;;
735;SDS011;352;48.626;9.238;2022-09-09T13:20:55;2.93;;;2.50;;
735;SDS011;352;48.626;9.238;2022-09-09T13:23:25;1.53;;;0.97;;
735;SDS011;352;48.626;9.238;2022-09-09T13:26:02;3.47;;;0.93;;
735;SDS011;352;48.626;9.238;2022-09-09T13:28:50;1.90;;;1.00;;
735;SDS011;352;48.626;9.238;2022-09-09T13:31:23;0.93;;;0.70;;
735;SDS011;352;48.626;9.238;2022-09-09T13:34:11;1.43;;;0.90;;
735;SDS011;352;48.626;9.238;2022-09-09T13:36:46;3.23;;;1.10;;
735;SDS011;352;48.626;9.238;2022-09-09T13:39:16;1.63;;;1.40;;
735;SDS011;352;48.626;9.238;2022-09-09T13:41:44;1.37;;;1.10;;
735;SDS011;352;48.626;9.238;2022-09-09T13:44:14;3.77;;;1.40;;
735;SDS011;352;48.626;9.238;2022-09-09T13:46:46;2.23;;;1.27;;
735;SDS011;352;48.626;9.238;2022-09-09T13:49:19;1.87;;;1.20;;
735;SDS011;352;48.626;9.238;2022-09-09T13:51:49;1.77;;;0.90;;
735;SDS011;352;48.626;9.238;2022-09-09T13:54:20;1.50;;;1.10;;
735;SDS011;352;48.626;9.238;2022-09-09T13:56:47;1.63;;;1.27;;
735;SDS011;352;48.626;9.238;2022-09-09T13:59:15;2.13;;;1.47;;
735;SDS011;352;48.626;9.238;2022-09-09T14:01:44;2.73;;;1.10;;
735;SDS011;352;48.626;9.238;2022-09-09T14:04:11;2.90;;;0.90;;
735;SDS011;352;48.626;9.238;2022-09-09T14:06:39;1.20;;;0.83;;
735;SDS011;352;48.626;9.238;2022-09-09T14:09:06;3.17;;;1.53;;
735;SDS011;352;48.626;9.238;2022-09-09T14:11:37;1.93;;;1.10;;
735;SDS011;352;48.626;9.238;2022-09-09T14:14:05;2.13;;;1.33;;
735;SDS011;352;48.626;9.238;2022-09-09T14:16:32;3.33;;;1.37;;
735;SDS011;352;48.626;9.238;2022-09-09T14:18:59;1.10;;;1.00;;
735;SDS011;352;48.626;9.238;2022-09-09T14:21:27;1.50;;;1.10;;
735;SDS011;352;48.626;9.238;2022-09-09T14:23:54;5.03;;;1.30;;
735;SDS011;352;48.626;9.238;2022-09-09T14:26:23;1.23;;;1.10;;
735;SDS011;352;48.626;9.238;2022-09-09T14:28:52;2.23;;;0.90;;
735;SDS011;352;48.626;9.238;2022-09-09T14:31:19;3.00;;;1.00;;
735;SDS011;352;48.626;9.238;2022-09-09T14:33:46;1.70;;;1.10;;
735;SDS011;352;48.626;9.238;2022-09-09T14:36:13;4.27;;;1.10;;
735;SDS011;352;48.626;9.238;2022-09-09T14:38:40;2.13;;;0.90;;
735;SDS011;352;48.626;9.238;2022-09-09T14:41:07;4.23;;;0.90;;
735;SDS011;352;48.626;9.238;2022-09-09T14:43:37;1.00;;;0.90;;
735;SDS011;352;48.626;9.238;2022-09-09T14:46:05;2.43;;;0.97;;
735;SDS011;352;48.626;9.238;2022-09-09T14:48:33;1.57;;;0.97;;
735;SDS011;352;48.626;9.238;2022-09-09T14:51:04;1.70;;;1.00;;
735;SDS011;352;48.626;9.238;2022-09-09T14:53:32;1.37;;;1.10;;
735;SDS011;352;48.626;9.238;2022-09-09T14:56:03;2.17;;;1.07;;
735;SDS011;352;48.626;9.238;2022-09-09T14:58:31;1.03;;;0.90;;
735;SDS011;352;48.626;9.238;2022-09-09T15:01:01;1.97;;;1.00;;
735;SDS011;352;48.626;9.238;2022-09-09T15:03:30;1.70;;;0.83;;
735;SDS011;352;48.626;9.238;2022-09-09T15:05:57;3.43;;;0.93;;
735;SDS011;352;48.626;9.238;2022-09-09T15:08:24;3.20;;;0.97;;
735;SDS011;352;48.626;9.238;2022-09-09T15:10:58;1.33;;;0.90;;
735;SDS011;352;48.626;9.238;2022-09-09T15:13:25;2.17;;;1.10;;
735;SDS011;352;48.626;9.238;2022-09-09T15:15:52;1.90;;;0.90;;
735;SDS011;352;48.626;9.238;2022-09-09T15:18:19;1.67;;;1.03;;
735;SDS011;352;48.626;9.238;2022-09-09T15:20:47;1.00;;;0.80;;
735;SDS011;352;48.626;9.238;2022-09-09T15:23:14;1.67;;;0.93;;
735;SDS011;352;48.626;9.238;2022-09-09T15:25:49;1.27;;;0.80;;
735;SDS011;352;48.626;9.238;2022-09-09T15:28:17;2.07;;;1.00;;
735;SDS011;352;48.626;9.238;2022-09-09T15:30:46;1.63;;;1.10;;
735;SDS011;352;48.626;9.238;2022-09-09T15:33:13;3.70;;;1.00;;
735;SDS011;352;48.626;9.238;2022-09-09T15:35:40;2.83;;;1.20;;
735;SDS011;352;48.626;9.238;2022-09-09T15:38:08;1.73;;;0.83;;
735;SDS011;352;48.626;9.238;2022-09-09T15:40:35;2.43;;;0.73;;
735;SDS011;352;48.626;9.238;2022-09-09T15:43:01;1.10;;;0.80;;
735;SDS011;352;48.626;9.238;2022-09-09T15:45:29;1.83;;;0.90;;
735;SDS011;352;48.626;9.238;2022-09-09T15:47:55;2.00;;;0.90;;
735;SDS011;352;48.626;9.238;2022-09-09T15:50:22;1.93;;;0.63;;
735;SDS011;352;48.626;9.238;2022-09-09T15:52:49;4.20;;;0.87;;
735;SDS011;352;48.626;9.238;2022-09-09T15:55:18;2.30;;;1.03;;
735;SDS011;352;48.626;9.238;2022-09-09T15:57:46;2.17;;;0.80;;
735;SDS011;352;48.626;9.238;2022-09-09T16:00:13;2.37;;;0.70;;
735;SDS011;352;48.626;9.238;2022-09-09T16:02:40;1.47;;;0.80;;
735;SDS011;352;48.626;9.238;2022-09-09T16:05:07;1.17;;;0.73;;
735;SDS011;352;48.626;9.238;2022-09-09T16:07:34;3.07;;;0.70;;
735;SDS011;352;48.626;9.238;2022-09-09T16:10:01;1.30;;;1.00;;